Aérodrome :
LOGIN :

S'inscrire | Disclaimer

   EN    FR    IT 

 










Légende :    VFR   VFR Marginal   IFR   IFR Intensif   IFR Très Intensif
Visi : 
Plafond : 
>= 8 km
>= 3000ft
5 à 8 km
1000 à 3000 ft
1500m à 5 km
500 à 1000 ft
800 à 1500m
200 à 500 ft
< 800m
< 200 ft
Symboles :   Orages  Brouillard  Fortes neiges  Fortes précipitations  Vent > 20 kt
SIGMETs :   Divers  Orages  Givrage  Turbulence  Onde Orograph.  Cendres Volcan.







- Altitude de l'aérodrome : 74 ft
- Code IATA : MRS
- Voir les cartes d'approche


LFML - Marseille / Marignane

DERNIER METAR :
  • 240400Z AUTO 12005KT CAVOK 20/15 Q1017 NOSIG

METARs EXPIRÉS :
  • 240330Z AUTO 14004KT CAVOK 21/16 Q1017 NOSIG
  • 240300Z AUTO 12004KT CAVOK 20/16 Q1017 NOSIG
  • 240230Z AUTO 14003KT CAVOK 20/16 Q1017 NOSIG
  • 240200Z AUTO VRB02KT CAVOK 21/17 Q1017 NOSIG
  • 240130Z AUTO 00000KT CAVOK 22/16 Q1017 NOSIG

TAF TAF LFML
Valide du 24 à 03h jusqu'au 25 à 09h UTC


240200Z 2403/2509 VRB05KT CAVOK
TEMPO 2403/2405 5000
BECMG 2407/2410 18010KT SHRA
PROB40
TEMPO 2407/2412 VRB10G25KT 4000 TSRA SCT015 BKN040CB
BECMG 2416/2418 VRB05KT TX29/2412Z TN19/2503Z
ATIS : +33 4 42 31 15 15
Pas de NOTAMs connus pour ce terrain.
1 SIGMET publié pour la FIR Marseille (LFMM) :
 
Orages noyés dans la masse
LFMM SIGMET 1 VALID 240330/240430 LFPW
LFMM MARSEILLE FIR/UIR EMBD TS OBS WI N4215 E00415 - N4300 E00330 - N4330 E00415 - N4230 E00445 TOP FL330 MOV NE 15KT NC=



MET'MAP, la Météo Aéronautique d'un coup d'oeil ! - Copyright ORBIFLY Décembre 2007 - Disclaimer

ORBIFLY MET'MAP TEAM :

Programmation & Développement : Alexandra Zaïnal
Conception & Développement : Baudouin d'Aumeries
Co-Programmation & Développement : Marc-Olivier Méhu
Soutien technique & logistique : Manuel Goepfert

Contact : metmap@orbifly.com




SOURCES & CREDITS :

   NOAA